メインページ
METAR-TAF:

METAR-TAF

空港 :

ラロトンガ国際空港

ラロトンガ島, クック諸島

緯度: 21-12S, 経度: 159-49W, 海抜: 7m

現時点の気象観測

当レポートは53分前の04:00(UTC)に作成
東/南東の風 5kt
気温 22°C
湿度 57%
気圧 1015 hPa
視程10km以上
高度2500ftの雲はほとんどない
高度9000ftの千切れ雲あり

METAR: NCRG 200400Z 11005KT 9999 FEW025 BKN090 22/13 Q1015 RMK DRY AIR 58%

時間: 18:53 (04:53 UTC)

予報

当レポートは5時間33分前の23:20(UTC)に作成
予報は20日の 00時(UTC)から 20日の 24時(UTC)まで有効
東/南東の風 12kt
視程10km以上
高度1800ftの雲は散在している
高度4000ftの雲は散在している
高度10000ftの千切れ雲あり
20日の 00時(UTC)から 20日の 09時(UTC)まで一時的に
東/南東の風 15kt、最大25ktの突風を伴う
確率 40% :
20日の 18時(UTC)から 20日の 24時(UTC)まで一時的に
東/南東の風 15kt、最大25ktの突風を伴う
視程: 5000m
高度1500ftの千切れ雲あり
にわか雨

TAF: NCRG 192320Z 2000/2024 11012KT 9999 SCT018 SCT040 BKN100 TEMPO 2000/2009 11015G25KT PROB40 TEMPO 2018/2024 11015G25KT 5000 SHRA BKN015

4,000以上の空港の気象観測と天気予報(METAR報とTAF報)

利用可能な観測所は地図上に黄色い丸と赤い丸で示す。

丸の上にカーソルを重ねると観測所名を参照できる。

次にクリックすると気象観測と天気予報を参照できる。

マップの切り替え:黒色「×」印の緑ボタンをクリックして拡大、「-」印の緑ボタンをクリックして縮小、緑色の三角印をクリックして隣りの地図に切り替え


METAR-TAF: